Time;durP1;ratioP1;P1;durP2;ratioP2;P2;SDS_P1;SDS_P2;PMS_P1;PMS_P2;Temp;Humidity;BMP_temperature;BMP_pressure;BME280_temperature;BME280_humidity;BME280_pressure;Samples;Min_cycle;Max_cycle;Signal;HPM_P1;HPM_P2
2021/11/22 00:01:58;;;;;;;28.13;21.52;;;7.70;85.50;;;;;;5092659;28;20028;-73
2021/11/22 00:04:24;;;;;;;25.70;19.35;;;7.70;85.50;;;;;;5074958;28;20123;-73
2021/11/22 00:06:50;;;;;;;24.73;19.05;;;7.80;85.60;;;;;;5092435;28;20059;-74
2021/11/22 00:09:16;;;;;;;25.85;20.13;;;7.80;85.10;;;;;;5075454;28;20115;-73
2021/11/22 00:11:42;;;;;;;26.45;20.67;;;7.80;84.90;;;;;;5074570;28;20115;-73
2021/11/22 00:14:07;;;;;;;23.90;19.35;;;7.80;85.10;;;;;;5094035;28;20028;-74
2021/11/22 00:16:34;;;;;;;24.88;19.45;;;7.80;85.00;;;;;;5081915;28;20032;-74
2021/11/22 00:18:59;;;;;;;25.27;19.75;;;7.80;84.60;;;;;;5082240;28;20078;-74
2021/11/22 00:21:25;;;;;;;26.55;20.33;;;7.80;84.70;;;;;;5100192;28;20024;-75
2021/11/22 00:23:51;;;;;;;33.35;23.63;;;7.80;84.50;;;;;;5082223;28;20084;-75
2021/11/22 00:26:17;;;;;;;31.85;22.90;;;7.80;84.20;;;;;;5099658;28;20123;-74
2021/11/22 00:28:43;;;;;;;32.65;22.75;;;7.70;84.00;;;;;;5098274;28;20024;-74
2021/11/22 00:31:09;;;;;;;29.23;22.00;;;7.70;84.10;;;;;;5082103;28;20039;-73
2021/11/22 00:33:35;;;;;;;31.02;22.17;;;7.70;84.20;;;;;;5099064;28;20032;-74
2021/11/22 00:36:01;;;;;;;30.98;23.10;;;7.70;84.20;;;;;;5099157;28;20024;-74
2021/11/22 00:38:27;;;;;;;26.85;20.67;;;7.70;84.40;;;;;;5100099;28;20060;-73
2021/11/22 00:40:54;;;;;;;26.92;20.95;;;7.70;84.50;;;;;;5098870;28;20101;-73
2021/11/22 00:43:21;;;;;;;26.88;22.08;;;7.70;84.40;;;;;;5082327;28;20059;-73
2021/11/22 00:45:51;;;;;;;31.60;23.67;;;7.60;84.20;;;;;;5082332;28;20070;-73
2021/11/22 00:48:20;;;;;;;34.20;26.67;;;7.60;84.10;;;;;;5106857;28;20355;-72
2021/11/22 00:50:46;;;;;;;38.92;29.60;;;7.60;84.10;;;;;;5107502;28;20028;-73
2021/11/22 00:53:12;;;;;;;37.60;28.10;;;7.60;84.20;;;;;;5099404;28;20123;-73
2021/11/22 00:55:37;;;;;;;37.22;28.02;;;7.60;84.10;;;;;;5099902;28;20107;-74
2021/11/22 00:58:03;;;;;;;34.55;28.33;;;7.50;83.90;;;;;;5099593;28;20322;-74
2021/11/22 01:00:29;;;;;;;35.83;28.77;;;7.50;83.90;;;;;;5100077;28;20024;-74
2021/11/22 01:02:55;;;;;;;32.92;25.58;;;7.40;83.70;;;;;;5098710;28;20504;-74
2021/11/22 01:05:20;;;;;;;35.13;26.38;;;7.40;83.70;;;;;;5099091;28;20063;-73
2021/11/22 01:07:46;;;;;;;35.30;27.30;;;7.40;83.60;;;;;;5099667;28;20036;-74
2021/11/22 01:10:14;;;;;;;38.75;32.30;;;7.40;83.70;;;;;;5100346;28;20062;-74
2021/11/22 01:12:40;;;;;;;43.67;33.35;;;7.50;83.60;;;;;;5098514;28;20089;-75
2021/11/22 01:15:09;;;;;;;41.35;30.25;;;7.40;83.40;;;;;;5097463;28;20036;-74
2021/11/22 01:17:36;;;;;;;36.60;27.50;;;7.40;83.40;;;;;;5097666;28;20498;-74
2021/11/22 01:20:04;;;;;;;33.13;25.67;;;7.40;83.40;;;;;;5098430;28;20032;-73
2021/11/22 01:22:30;;;;;;;30.85;24.38;;;7.30;83.40;;;;;;5081825;28;20062;-74
2021/11/22 01:24:56;;;;;;;30.10;25.15;;;7.30;83.50;;;;;;5088093;28;20059;-74
2021/11/22 01:27:22;;;;;;;32.72;25.40;;;7.20;83.50;;;;;;5069665;28;20035;-74
2021/11/22 01:29:48;;;;;;;27.90;23.85;;;7.20;83.70;;;;;;5093503;28;20024;-74
2021/11/22 01:32:14;;;;;;;31.48;25.73;;;7.10;83.90;;;;;;5093886;28;20067;-74
2021/11/22 01:34:40;;;;;;;34.50;28.35;;;7.00;84.10;;;;;;5095270;28;20145;-73
2021/11/22 01:37:05;;;;;;;40.70;33.00;;;7.00;84.30;;;;;;5094805;28;20501;-73
2021/11/22 01:39:31;;;;;;;44.95;38.50;;;6.90;84.60;;;;;;5094844;28;20114;-73
2021/11/22 01:41:57;;;;;;;49.30;39.83;;;6.90;84.80;;;;;;5097662;28;20157;-72
2021/11/22 01:44:23;;;;;;;41.97;34.90;;;6.80;85.70;;;;;;5105330;28;20434;-73
2021/11/22 01:46:49;;;;;;;43.78;34.35;;;6.80;85.40;;;;;;5100443;28;20079;-73
2021/11/22 01:49:17;;;;;;;44.28;31.83;;;6.70;85.60;;;;;;5096045;28;20104;-73
2021/11/22 01:51:43;;;;;;;41.42;30.88;;;6.70;85.80;;;;;;5093837;28;20032;-73
2021/11/22 01:54:10;;;;;;;41.80;31.63;;;6.80;85.80;;;;;;5078098;28;20359;-73
2021/11/22 01:56:36;;;;;;;40.75;29.55;;;6.80;85.70;;;;;;5095904;28;20086;-73
2021/11/22 01:59:02;;;;;;;35.25;27.42;;;6.80;85.60;;;;;;5095948;28;20457;-73
2021/11/22 02:01:28;;;;;;;33.25;25.70;;;6.80;85.60;;;;;;5095969;28;20032;-73
2021/11/22 02:03:54;;;;;;;33.83;24.52;;;6.70;85.60;;;;;;5077649;28;20047;-73
2021/11/22 02:06:19;;;;;;;32.00;23.33;;;6.70;85.90;;;;;;5077671;28;20466;-73
2021/11/22 02:08:45;;;;;;;33.28;24.00;;;6.70;86.20;;;;;;5094085;28;20047;-73
2021/11/22 02:11:12;;;;;;;30.85;21.83;;;6.80;86.50;;;;;;5095048;28;20492;-73
2021/11/22 02:13:39;;;;;;;32.30;22.40;;;6.80;86.70;;;;;;5094866;28;20036;-73
2021/11/22 02:16:05;;;;;;;31.92;22.88;;;6.90;86.60;;;;;;5094413;28;20024;-73
2021/11/22 02:18:31;;;;;;;33.13;22.15;;;7.00;86.40;;;;;;5095507;28;20052;-73
2021/11/22 02:20:57;;;;;;;67.35;40.05;;;7.10;86.10;;;;;;5078071;28;20336;-73
2021/11/22 02:23:23;;;;;;;65.68;41.13;;;7.10;85.60;;;;;;5077383;28;20035;-73
2021/11/22 02:25:49;;;;;;;57.92;38.28;;;7.20;85.30;;;;;;5094300;28;20028;-73
2021/11/22 02:28:15;;;;;;;52.50;34.25;;;7.30;84.90;;;;;;5095576;28;20112;-74
2021/11/22 02:30:44;;;;;;;53.08;35.15;;;7.30;84.70;;;;;;5077489;28;20024;-74
2021/11/22 02:33:14;;;;;;;54.50;35.92;;;7.30;84.30;;;;;;5094305;28;20418;-73
2021/11/22 02:35:44;;;;;;;51.45;34.10;;;7.30;84.20;;;;;;5076770;28;20111;-74
2021/11/22 02:38:10;;;;;;;48.17;31.75;;;7.40;84.10;;;;;;5098745;28;20114;-73
2021/11/22 02:40:36;;;;;;;38.05;27.48;;;7.30;84.20;;;;;;5104424;28;20394;-73
2021/11/22 02:43:02;;;;;;;32.17;23.42;;;7.40;84.40;;;;;;5080264;28;20032;-73
2021/11/22 02:45:28;;;;;;;29.95;22.88;;;7.40;84.30;;;;;;5076943;28;20039;-73
2021/11/22 02:47:54;;;;;;;29.13;22.30;;;7.40;84.00;;;;;;5095589;28;20027;-75
2021/11/22 02:50:20;;;;;;;28.70;22.60;;;7.50;83.80;;;;;;5076719;28;20031;-74
2021/11/22 02:52:49;;;;;;;29.25;22.08;;;7.50;83.40;;;;;;5077050;28;20089;-73
2021/11/22 02:55:17;;;;;;;29.40;21.63;;;7.50;83.30;;;;;;5076524;28;20452;-74
2021/11/22 02:57:44;;;;;;;32.40;27.10;;;7.50;83.20;;;;;;5093661;28;20024;-74
2021/11/22 03:00:31;;;;;;;48.22;38.78;;;7.60;83.30;;;;;;5093711;28;20035;-74
2021/11/22 03:02:57;;;;;;;55.10;45.13;;;7.60;83.10;;;;;;5094383;28;20114;-74
2021/11/22 03:05:24;;;;;;;57.28;47.83;;;7.50;82.90;;;;;;5075877;28;20122;-74
2021/11/22 03:07:53;;;;;;;51.70;43.97;;;7.50;82.80;;;;;;5093472;28;20031;-74
2021/11/22 03:10:20;;;;;;;48.70;38.78;;;7.50;82.90;;;;;;5094678;28;20057;-73
2021/11/22 03:12:47;;;;;;;42.13;36.20;;;7.40;83.00;;;;;;5093196;28;20066;-73
2021/11/22 03:15:15;;;;;;;44.65;36.90;;;7.40;83.10;;;;;;5087282;28;20029;-74
2021/11/22 03:17:42;;;;;;;45.67;38.22;;;7.30;83.20;;;;;;5093178;28;20051;-74
2021/11/22 03:20:11;;;;;;;41.70;37.17;;;7.30;83.60;;;;;;5093792;28;20366;-74
2021/11/22 03:22:37;;;;;;;40.78;36.35;;;7.30;83.80;;;;;;5094306;28;20524;-74
2021/11/22 03:25:05;;;;;;;41.10;36.53;;;7.20;84.10;;;;;;5075971;28;20118;-73
2021/11/22 03:27:31;;;;;;;42.20;37.42;;;7.20;84.40;;;;;;5092948;28;20527;-75
2021/11/22 03:29:57;;;;;;;40.03;35.70;;;7.20;84.40;;;;;;5075861;28;20027;-73
2021/11/22 03:32:23;;;;;;;46.42;38.63;;;7.30;84.00;;;;;;5075776;28;20028;-74
2021/11/22 03:34:49;;;;;;;36.83;31.67;;;7.20;83.50;;;;;;5102395;28;20027;-72
2021/11/22 03:37:15;;;;;;;32.05;27.40;;;7.10;83.60;;;;;;5082202;28;20028;-74
2021/11/22 03:39:45;;;;;;;32.42;27.20;;;7.00;83.90;;;;;;5094331;28;20150;-74
2021/11/22 03:42:15;;;;;;;27.92;23.38;;;6.90;84.20;;;;;;5094119;28;20461;-73
2021/11/22 03:44:41;;;;;;;27.20;22.13;;;6.80;84.80;;;;;;5075644;28;20040;-73
2021/11/22 03:47:07;;;;;;;29.63;25.10;;;6.60;85.30;;;;;;5075860;28;20032;-74
2021/11/22 03:49:33;;;;;;;30.88;25.02;;;6.50;85.70;;;;;;5092809;28;20047;-74
2021/11/22 03:52:01;;;;;;;30.48;24.35;;;6.40;86.40;;;;;;5068923;28;20027;-73
2021/11/22 03:54:27;;;;;;;30.42;24.23;;;6.40;87.00;;;;;;5092600;28;20034;-73
2021/11/22 03:56:53;;;;;;;36.95;30.23;;;6.40;87.30;;;;;;5075581;28;20452;-73
2021/11/22 03:59:18;;;;;;;47.40;35.63;;;6.30;87.90;;;;;;5075521;28;20024;-73
2021/11/22 04:01:44;;;;;;;49.50;35.95;;;6.30;88.60;;;;;;5074539;28;20077;-73
2021/11/22 04:04:10;;;;;;;38.05;29.65;;;6.40;88.90;;;;;;5092560;28;20118;-73
2021/11/22 04:06:36;;;;;;;39.38;28.05;;;6.40;88.90;;;;;;5092170;28;20036;-74
2021/11/22 04:09:04;;;;;;;40.42;30.00;;;6.50;88.90;;;;;;5075889;28;20024;-74
2021/11/22 04:11:31;;;;;;;42.78;32.38;;;6.50;88.80;;;;;;5075854;28;20024;-73
2021/11/22 04:13:57;;;;;;;39.67;30.48;;;6.60;88.60;;;;;;5075425;28;20440;-73
2021/11/22 04:16:23;;;;;;;37.63;30.45;;;6.60;88.50;;;;;;5075671;28;20028;-73
2021/11/22 04:18:50;;;;;;;35.85;30.48;;;6.70;88.30;;;;;;5075154;28;20060;-72
2021/11/22 04:21:18;;;;;;;41.60;35.63;;;6.70;87.90;;;;;;5068597;28;20036;-73
2021/11/22 04:23:44;;;;;;;46.90;38.30;;;6.60;87.90;;;;;;5055236;28;20474;-73
2021/11/22 04:26:11;;;;;;;46.83;38.22;;;6.60;87.90;;;;;;5057238;28;20043;-74
2021/11/22 04:28:38;;;;;;;43.90;37.22;;;6.60;88.30;;;;;;5088885;28;20084;-74
2021/11/22 04:31:05;;;;;;;44.88;39.05;;;6.50;88.40;;;;;;5082857;28;20371;-73
2021/11/22 04:33:31;;;;;;;46.05;40.97;;;6.60;88.20;;;;;;5097755;28;20028;-73
2021/11/22 04:35:59;;;;;;;48.33;40.85;;;6.50;87.80;;;;;;5091815;28;20024;-74
2021/11/22 04:38:24;;;;;;;47.45;38.33;;;6.50;87.60;;;;;;5075491;28;20040;-73
2021/11/22 04:40:50;;;;;;;49.60;39.33;;;6.50;87.60;;;;;;5073913;28;20086;-73
2021/11/22 04:43:16;;;;;;;45.13;37.03;;;6.50;87.80;;;;;;5074884;28;20059;-73
2021/11/22 04:45:42;;;;;;;41.55;35.72;;;6.40;87.90;;;;;;5093137;28;20032;-73
2021/11/22 04:48:08;;;;;;;45.25;37.22;;;6.30;88.10;;;;;;5093053;28;20107;-74
2021/11/22 04:50:35;;;;;;;41.97;34.40;;;6.20;88.30;;;;;;5093224;28;20111;-73
2021/11/22 04:53:01;;;;;;;41.63;33.97;;;6.20;88.60;;;;;;5092132;28;20035;-73
2021/11/22 04:55:28;;;;;;;43.47;35.60;;;6.10;88.90;;;;;;5093068;28;20047;-73
2021/11/22 04:57:54;;;;;;;42.72;35.65;;;6.00;89.50;;;;;;5092770;28;20476;-73
2021/11/22 05:00:22;;;;;;;48.70;39.15;;;6.00;89.90;;;;;;5074631;28;20032;-74
2021/11/22 05:02:48;;;;;;;51.67;40.97;;;5.90;90.10;;;;;;5086628;28;20033;-72
2021/11/22 05:05:16;;;;;;;54.22;40.92;;;5.90;90.10;;;;;;5058695;28;20398;-73
2021/11/22 05:07:43;;;;;;;61.95;45.75;;;5.80;90.20;;;;;;5083375;28;20024;-74
2021/11/22 05:10:10;;;;;;;68.15;51.38;;;5.80;90.30;;;;;;5078082;28;20474;-73
2021/11/22 05:12:36;;;;;;;64.10;48.28;;;5.70;90.30;;;;;;5078224;28;20422;-74
2021/11/22 05:15:03;;;;;;;68.28;50.17;;;5.60;90.40;;;;;;5097247;28;20559;-72
2021/11/22 05:17:29;;;;;;;71.75;54.55;;;5.40;90.50;;;;;;5060460;28;20068;-79
2021/11/22 05:19:54;;;;;;;71.50;55.33;;;5.40;90.80;;;;;;5077033;28;20556;-78
2021/11/22 05:22:21;;;;;;;79.00;59.20;;;5.30;91.00;;;;;;5079501;28;20020;-78
2021/11/22 05:24:51;;;;;;;74.70;54.83;;;5.30;91.20;;;;;;5081696;28;20033;-79
2021/11/22 05:27:25;;;;;;;70.63;51.90;;;5.20;91.40;;;;;;5085807;28;20055;-78
2021/11/22 05:29:51;;;;;;;72.35;49.85;;;5.20;91.60;;;;;;5077801;28;20033;-78
2021/11/22 05:32:18;;;;;;;64.07;45.40;;;5.10;91.70;;;;;;5073291;28;20071;-76
2021/11/22 05:34:49;;;;;;;57.90;37.65;;;5.10;91.90;;;;;;5058197;28;20020;-75
2021/11/22 05:37:16;;;;;;;57.00;39.15;;;5.10;92.40;;;;;;5059108;28;20052;-77
2021/11/22 05:39:43;;;;;;;65.60;41.38;;;5.20;92.90;;;;;;5063820;28;20028;-76
2021/11/22 05:42:09;;;;;;;69.70;44.38;;;5.30;92.70;;;;;;5063160;28;20061;-76
2021/11/22 05:44:35;;;;;;;84.25;48.22;;;5.50;92.90;;;;;;5091394;28;20385;-77
2021/11/22 05:47:10;;;;;;;92.15;50.05;;;5.70;93.20;;;;;;5077402;28;20458;-76
2021/11/22 05:49:36;;;;;;;109.25;50.33;;;6.10;92.90;;;;;;5095429;28;20062;-75
2021/11/22 05:52:07;;;;;;;103.22;47.45;;;6.50;92.00;;;;;;5095613;28;20028;-75
2021/11/22 05:54:34;;;;;;;78.28;41.45;;;6.90;90.60;;;;;;5096381;28;20111;-76
2021/11/22 05:57:01;;;;;;;76.20;41.03;;;7.30;89.70;;;;;;5077361;28;20032;-76
2021/11/22 05:59:27;;;;;;;73.80;41.08;;;7.80;87.00;;;;;;5094503;28;20032;-77
2021/11/22 06:01:54;;;;;;;62.85;35.67;;;8.20;84.80;;;;;;5093672;28;20039;-76
2021/11/22 06:04:20;;;;;;;57.95;34.10;;;8.60;82.90;;;;;;5074565;28;20031;-77
2021/11/22 06:06:45;;;;;;;40.90;27.63;;;9.10;81.00;;;;;;5089947;28;20466;-75
2021/11/22 06:09:11;;;;;;;31.75;22.58;;;9.60;79.00;;;;;;5073112;28;20028;-73
2021/11/22 06:11:37;;;;;;;25.80;19.55;;;10.00;77.00;;;;;;5075332;28;20457;-73
2021/11/22 06:14:03;;;;;;;23.52;19.70;;;10.60;75.10;;;;;;5074818;28;20043;-73
2021/11/22 06:16:31;;;;;;;25.90;21.48;;;11.10;73.10;;;;;;5094165;28;20055;-76
2021/11/22 06:18:57;;;;;;;27.65;21.08;;;11.60;71.00;;;;;;5064197;28;20389;-77
2021/11/22 06:21:22;;;;;;;26.00;21.10;;;11.90;69.90;;;;;;5075967;28;20036;-77
2021/11/22 06:23:48;;;;;;;30.63;23.42;;;12.30;68.90;;;;;;5080390;28;20029;-76
2021/11/22 06:26:14;;;;;;;34.10;24.02;;;12.70;67.40;;;;;;5092912;28;20020;-77
2021/11/22 06:28:40;;;;;;;33.90;25.10;;;13.00;66.20;;;;;;5089507;28;20112;-78
2021/11/22 06:31:06;;;;;;;32.83;25.45;;;13.20;65.50;;;;;;5094196;28;20115;-76
2021/11/22 06:33:32;;;;;;;32.72;25.70;;;13.50;64.80;;;;;;5075376;28;20517;-77
2021/11/22 06:35:58;;;;;;;30.10;22.83;;;13.70;64.00;;;;;;5076025;28;20385;-77
2021/11/22 06:38:25;;;;;;;28.63;22.55;;;13.80;62.50;;;;;;5083139;28;20078;-77
2021/11/22 06:40:51;;;;;;;29.63;23.98;;;13.70;61.50;;;;;;5064415;28;20025;-74
2021/11/22 06:43:17;;;;;;;35.97;27.85;;;13.40;61.30;;;;;;5072033;28;20027;-74
2021/11/22 06:45:43;;;;;;;34.83;26.98;;;13.20;61.80;;;;;;5075760;28;20036;-75
2021/11/22 06:48:09;;;;;;;34.17;27.30;;;13.30;62.60;;;;;;5081750;28;20035;-73
2021/11/22 06:50:35;;;;;;;36.00;26.88;;;13.50;62.70;;;;;;5078774;28;20040;-74
2021/11/22 06:53:01;;;;;;;38.97;28.77;;;13.60;61.60;;;;;;5087437;28;20073;-74
2021/11/22 06:55:27;;;;;;;36.72;28.55;;;13.60;61.70;;;;;;5092174;28;20525;-75
2021/11/22 06:57:53;;;;;;;43.30;31.02;;;13.80;61.80;;;;;;5074403;28;20020;-78
2021/11/22 07:00:21;;;;;;;41.47;30.58;;;14.10;61.10;;;;;;5090298;28;20158;-82
2021/11/22 07:02:51;;;;;;;42.10;31.23;;;14.30;60.70;;;;;;5076408;28;20382;-87
2021/11/22 07:05:18;;;;;;;44.30;33.15;;;14.60;60.50;;;;;;5075853;28;20032;-87
2021/11/22 07:07:44;;;;;;;50.22;35.28;;;14.70;59.50;;;;;;5068760;28;20032;-83
2021/11/22 07:10:12;;;;;;;48.70;34.22;;;14.50;59.20;;;;;;5087223;28;20047;-84
2021/11/22 07:12:38;;;;;;;46.25;34.00;;;14.10;59.00;;;;;;5089316;28;20024;-83
2021/11/22 07:15:04;;;;;;;44.83;31.63;;;13.60;59.60;;;;;;5078900;28;20147;-84
2021/11/22 07:17:30;;;;;;;40.22;30.60;;;13.10;60.50;;;;;;5101069;28;20044;-86
2021/11/22 07:19:57;;;;;;;40.22;30.63;;;12.60;61.40;;;;;;5095963;28;20028;-82
2021/11/22 07:22:24;;;;;;;38.92;30.10;;;12.30;62.00;;;;;;5094176;28;20028;-82
2021/11/22 07:24:50;;;;;;;38.50;28.90;;;12.00;62.90;;;;;;5074962;28;20063;-84
2021/11/22 07:27:17;;;;;;;38.85;28.92;;;11.60;63.80;;;;;;5092395;28;20063;-84
2021/11/22 07:29:43;;;;;;;41.90;31.92;;;11.10;64.80;;;;;;5081789;28;20402;-85
2021/11/22 07:32:10;;;;;;;41.33;33.00;;;10.80;65.80;;;;;;5097045;28;20024;-86
2021/11/22 07:34:36;;;;;;;42.55;32.75;;;10.50;66.60;;;;;;5076494;28;20028;-86
2021/11/22 07:37:02;;;;;;;41.30;31.75;;;10.30;67.90;;;;;;5076717;28;20028;-87
2021/11/22 07:39:28;;;;;;;46.33;33.50;;;10.10;68.70;;;;;;5076286;28;20078;-85
2021/11/22 07:41:56;;;;;;;42.40;32.47;;;10.00;69.30;;;;;;5076168;28;20458;-86
2021/11/22 07:44:23;;;;;;;46.92;33.47;;;9.90;69.70;;;;;;5094389;28;20039;-85
2021/11/22 07:46:49;;;;;;;44.95;34.97;;;9.80;70.10;;;;;;5076370;28;20028;-86
2021/11/22 07:49:15;;;;;;;58.08;40.40;;;9.70;70.30;;;;;;5093946;28;20027;-86
2021/11/22 07:51:41;;;;;;;60.83;43.50;;;9.60;70.90;;;;;;5094385;28;20020;-87
2021/11/22 07:54:07;;;;;;;74.18;56.08;;;9.40;71.50;;;;;;5075959;28;20055;-86
2021/11/22 07:56:33;;;;;;;75.55;55.53;;;9.50;71.70;;;;;;5094554;28;20063;-86
2021/11/22 07:58:58;;;;;;;70.32;53.03;;;9.50;72.00;;;;;;5094869;28;20024;-87
2021/11/22 08:01:25;;;;;;;60.33;49.30;;;9.60;72.10;;;;;;5094426;28;20028;-87
2021/11/22 08:03:51;;;;;;;67.43;46.63;;;9.60;72.10;;;;;;5094408;28;20067;-86
2021/11/22 08:06:18;;;;;;;62.58;43.80;;;9.60;72.20;;;;;;5095037;28;20052;-87
2021/11/22 08:08:44;;;;;;;62.38;40.45;;;9.60;72.50;;;;;;5097926;28;20027;-85
2021/11/22 08:13:40;;;;;;;56.58;36.17;;;9.60;72.90;;;;;;5099458;28;20089;-84
2021/11/22 08:16:07;;;;;;;55.42;36.90;;;9.60;73.80;;;;;;5077292;28;20028;-83
2021/11/22 08:18:35;;;;;;;51.92;36.50;;;9.70;73.40;;;;;;5095881;28;20105;-87
2021/11/22 08:21:02;;;;;;;50.50;34.70;;;9.70;73.30;;;;;;5094425;28;20492;-88
2021/11/22 08:23:28;;;;;;;39.65;30.35;;;9.60;73.50;;;;;;5092867;28;20157;-86
2021/11/22 08:25:55;;;;;;;41.88;31.95;;;9.60;74.10;;;;;;5094029;28;20039;-87
2021/11/22 08:28:21;;;;;;;38.55;31.13;;;9.60;74.40;;;;;;5093853;28;20064;-86
2021/11/22 08:30:47;;;;;;;41.70;31.58;;;9.60;74.70;;;;;;5092748;28;20047;-86
2021/11/22 08:33:14;;;;;;;44.42;34.10;;;9.60;75.00;;;;;;5093748;28;20036;-86
2021/11/22 08:35:44;;;;;;;47.55;34.15;;;9.70;75.00;;;;;;5076374;28;20035;-86
2021/11/22 08:38:10;;;;;;;45.25;35.10;;;9.80;75.20;;;;;;5079810;28;20021;-87
2021/11/22 08:40:40;;;;;;;48.80;35.97;;;9.80;75.20;;;;;;5097812;28;20089;-85
2021/11/22 08:43:08;;;;;;;47.85;35.72;;;9.80;75.60;;;;;;5101319;28;20035;-85
2021/11/22 08:45:38;;;;;;;52.22;36.97;;;9.80;76.00;;;;;;5104126;28;20027;-82
2021/11/22 08:48:05;;;;;;;58.90;40.65;;;9.90;76.20;;;;;;5083465;28;20518;-85
2021/11/22 08:50:31;;;;;;;57.60;40.17;;;10.00;76.10;;;;;;5082092;28;20166;-86
2021/11/22 08:53:03;;;;;;;56.95;38.45;;;10.10;75.90;;;;;;5081797;28;20074;-87
2021/11/22 08:55:29;;;;;;;53.05;39.35;;;10.20;75.80;;;;;;5083342;28;20142;-85
2021/11/22 08:57:55;;;;;;;56.38;39.63;;;10.20;75.70;;;;;;5102202;28;20116;-86
2021/11/22 09:00:26;;;;;;;50.22;34.85;;;10.20;75.70;;;;;;5104371;28;20054;-86
2021/11/22 09:02:54;;;;;;;27.65;20.27;;;10.20;75.90;;;;;;5084317;28;20028;-86
2021/11/22 09:05:20;;;;;;;24.42;17.20;;;10.20;75.90;;;;;;5108409;28;20039;-86
2021/11/22 09:07:50;;;;;;;18.88;13.88;;;10.30;76.00;;;;;;5109124;28;20020;-86
2021/11/22 09:10:16;;;;;;;20.67;13.13;;;10.30;75.80;;;;;;5102684;28;20115;-87
2021/11/22 09:12:42;;;;;;;16.25;12.88;;;10.30;75.50;;;;;;5101395;28;20035;-84
2021/11/22 09:15:08;;;;;;;16.92;12.85;;;10.40;75.40;;;;;;5099587;28;20103;-86
2021/11/22 09:17:34;;;;;;;18.85;13.05;;;10.30;75.40;;;;;;5079145;28;20052;-85
2021/11/22 09:20:00;;;;;;;17.27;13.15;;;10.40;75.60;;;;;;5105077;28;20024;-85
2021/11/22 09:22:25;;;;;;;17.58;12.77;;;10.40;75.60;;;;;;5097233;28;20038;-85
2021/11/22 09:24:51;;;;;;;18.65;12.77;;;10.40;75.60;;;;;;5097423;28;20031;-87
2021/11/22 09:27:17;;;;;;;16.05;11.73;;;10.40;75.70;;;;;;5099961;28;20028;-86
2021/11/22 09:29:43;;;;;;;15.85;12.52;;;10.40;75.70;;;;;;5097427;28;20027;-87
2021/11/22 09:32:09;;;;;;;17.20;12.45;;;10.50;75.80;;;;;;5096529;28;20373;-86
2021/11/22 09:34:36;;;;;;;14.95;11.85;;;10.50;75.60;;;;;;5096564;28;20035;-86
2021/11/22 09:37:02;;;;;;;16.25;12.20;;;10.50;75.40;;;;;;5097120;28;20090;-86
2021/11/22 09:39:28;;;;;;;18.48;12.80;;;10.60;75.40;;;;;;5095294;28;20462;-86
2021/11/22 09:41:54;;;;;;;16.60;12.23;;;10.50;75.40;;;;;;5096993;28;20020;-86
2021/11/22 09:44:21;;;;;;;16.42;12.43;;;10.60;75.50;;;;;;5078689;28;20032;-87
2021/11/22 09:46:53;;;;;;;20.38;12.95;;;10.60;75.50;;;;;;5096209;28;20027;-87
2021/11/22 09:49:19;;;;;;;18.20;12.30;;;10.60;75.50;;;;;;5096180;28;20024;-88
2021/11/22 09:51:45;;;;;;;17.63;13.45;;;10.70;75.60;;;;;;5097229;28;20036;-86
2021/11/22 09:54:11;;;;;;;16.30;12.27;;;10.70;75.70;;;;;;5080942;28;20031;-84
2021/11/22 09:56:38;;;;;;;15.68;12.15;;;10.90;75.50;;;;;;5098461;28;20103;-86
2021/11/22 09:59:04;;;;;;;16.60;12.05;;;10.90;75.30;;;;;;5098058;28;20449;-86
2021/11/22 10:01:35;;;;;;;17.25;11.45;;;11.10;75.00;;;;;;5085003;28;20024;-86
2021/11/22 10:04:12;;;;;;;13.95;10.63;;;11.50;74.40;;;;;;5107925;28;20438;-87
2021/11/22 10:06:47;;;;;;;21.48;11.63;;;12.20;74.60;;;;;;5098755;28;20036;-87
2021/11/22 10:09:34;;;;;;;14.63;10.57;;;13.10;72.20;;;;;;5095090;28;20024;-87
2021/11/22 10:12:19;;;;;;;12.55;9.88;;;14.00;69.10;;;;;;5097515;28;20020;-87
2021/11/22 10:14:55;;;;;;;13.52;10.30;;;14.40;67.70;;;;;;5096755;28;20020;-87
2021/11/22 10:17:38;;;;;;;11.93;8.90;;;15.40;66.20;;;;;;5078378;28;20355;-87
2021/11/22 10:20:10;;;;;;;13.52;9.50;;;16.20;62.80;;;;;;5095956;28;20032;-88
2021/11/22 10:22:49;;;;;;;11.38;9.02;;;16.30;61.20;;;;;;5095469;28;20032;-87
2021/11/22 10:25:30;;;;;;;11.43;8.43;;;16.10;60.70;;;;;;5095898;28;20077;-87
2021/11/22 10:28:03;;;;;;;10.05;7.95;;;16.50;60.30;;;;;;5078404;28;20114;-87
2021/11/22 10:30:32;;;;;;;11.40;7.57;;;16.70;59.50;;;;;;5077765;28;20035;-87
2021/11/22 10:33:00;;;;;;;9.95;7.78;;;16.50;58.10;;;;;;5096087;28;20053;-88
2021/11/22 10:35:27;;;;;;;9.98;7.82;;;16.40;58.40;;;;;;5077547;28;20465;-87
2021/11/22 10:37:54;;;;;;;11.95;8.10;;;16.20;58.10;;;;;;5077306;28;20024;-87
2021/11/22 10:40:20;;;;;;;10.95;7.80;;;15.90;58.50;;;;;;5077400;28;20405;-86
2021/11/22 10:42:46;;;;;;;12.27;8.50;;;15.50;58.90;;;;;;5077321;28;20032;-87
2021/11/22 10:45:35;;;;;;;11.85;9.50;;;15.50;60.10;;;;;;5095693;28;20032;-88
2021/11/22 10:48:21;;;;;;;9.95;7.32;;;15.90;59.70;;;;;;5095710;28;20027;-87
2021/11/22 10:50:51;;;;;;;10.32;7.20;;;16.40;58.70;;;;;;5077571;28;20035;-87
2021/11/22 10:53:38;;;;;;;11.48;7.53;;;16.40;57.70;;;;;;5096850;28;20030;-88
2021/11/22 10:56:17;;;;;;;10.02;6.57;;;16.10;57.90;;;;;;5104520;28;20067;-86
2021/11/22 10:58:47;;;;;;;9.93;6.40;;;15.70;58.20;;;;;;5106659;28;20097;-87
2021/11/22 11:01:20;;;;;;;9.18;7.07;;;15.30;58.70;;;;;;5100180;28;20454;-87
2021/11/22 11:04:13;;;;;;;8.90;6.95;;;14.90;59.20;;;;;;5078130;28;20038;-87
2021/11/22 11:06:41;;;;;;;8.80;6.90;;;14.50;60.00;;;;;;5073361;28;20432;-86
2021/11/22 11:09:11;;;;;;;9.85;6.50;;;14.00;60.80;;;;;;5077765;28;20055;-87
2021/11/22 11:11:40;;;;;;;8.98;6.63;;;13.70;61.60;;;;;;5100018;28;20027;-85
2021/11/22 11:14:09;;;;;;;8.07;5.93;;;13.40;62.20;;;;;;5098694;28;20039;-85
2021/11/22 11:16:36;;;;;;;8.27;5.95;;;13.20;62.60;;;;;;5098373;28;20036;-86
2021/11/22 11:19:08;;;;;;;10.25;5.63;;;13.10;63.00;;;;;;5078629;28;20139;-85
2021/11/22 11:21:37;;;;;;;10.00;7.20;;;12.80;63.60;;;;;;5076069;28;20386;-85
2021/11/22 11:24:04;;;;;;;7.68;5.50;;;12.60;64.20;;;;;;5073109;28;20051;-85
2021/11/22 11:26:32;;;;;;;7.55;5.30;;;12.40;64.80;;;;;;5073245;28;20055;-84
2021/11/22 11:28:58;;;;;;;8.95;5.10;;;12.30;65.10;;;;;;5074321;28;20470;-83
2021/11/22 11:31:24;;;;;;;9.43;5.53;;;12.30;65.40;;;;;;5073378;28;20033;-85
2021/11/22 11:33:53;;;;;;;7.05;5.03;;;12.20;65.60;;;;;;5073108;28;20028;-85
2021/11/22 11:37:01;;;;;;;12.77;8.73;;;12.20;65.80;;;;;;5074266;28;20024;-86
2021/11/22 11:39:49;;;;;;;8.52;5.63;;;12.20;66.00;;;;;;5089875;28;20028;-84
2021/11/22 11:42:56;;;;;;;10.15;6.32;;;12.00;66.20;;;;;;5090576;28;20016;-84
2021/11/22 11:45:24;;;;;;;8.85;5.32;;;12.00;66.70;;;;;;5067474;28;20120;-84
2021/11/22 11:48:06;;;;;;;9.85;6.30;;;12.10;67.10;;;;;;5074693;28;20463;-85
2021/11/22 11:50:37;;;;;;;11.10;6.82;;;12.50;66.30;;;;;;5074035;28;20470;-85
2021/11/22 11:53:06;;;;;;;10.55;6.25;;;12.70;65.90;;;;;;5078539;28;20458;-85
2021/11/22 11:55:33;;;;;;;8.55;5.20;;;13.20;65.40;;;;;;5077487;28;20028;-85
2021/11/22 11:58:25;;;;;;;7.93;4.72;;;13.80;64.00;;;;;;5074169;28;20125;-85
2021/11/22 12:00:55;;;;;;;7.95;4.55;;;14.30;62.30;;;;;;5090665;28;20021;-86
2021/11/22 12:03:23;;;;;;;7.22;4.25;;;14.60;61.70;;;;;;5074103;28;20471;-87
2021/11/22 12:05:54;;;;;;;6.35;4.07;;;14.80;60.50;;;;;;5073022;28;20024;-86
2021/11/22 12:08:20;;;;;;;7.38;4.32;;;14.80;60.20;;;;;;5072911;28;20020;-85
2021/11/22 12:10:47;;;;;;;9.38;4.63;;;14.70;59.90;;;;;;5089411;28;20035;-85
2021/11/22 12:13:14;;;;;;;11.07;5.60;;;14.80;60.00;;;;;;5091036;28;20127;-85
2021/11/22 12:15:43;;;;;;;10.93;5.88;;;14.90;59.40;;;;;;5075925;28;20020;-86
2021/11/22 12:18:13;;;;;;;14.68;7.00;;;15.20;59.20;;;;;;5090790;28;20562;-84
2021/11/22 12:20:41;;;;;;;10.88;4.97;;;15.30;58.50;;;;;;5091087;28;20029;-85
2021/11/22 12:23:12;;;;;;;6.18;3.28;;;15.00;58.00;;;;;;5073324;28;20592;-84
2021/11/22 12:25:38;;;;;;;11.63;5.70;;;14.60;58.60;;;;;;5074177;28;20035;-85
2021/11/22 12:28:26;;;;;;;11.70;6.68;;;14.30;59.20;;;;;;5090467;28;20470;-84
2021/11/22 12:30:55;;;;;;;7.88;4.80;;;13.80;60.30;;;;;;5071344;28;20114;-85
2021/11/22 12:33:20;;;;;;;8.50;5.45;;;13.30;61.20;;;;;;5074295;28;20033;-85
2021/11/22 12:36:03;;;;;;;7.53;4.50;;;12.90;62.00;;;;;;5090806;28;20352;-85
2021/11/22 12:38:42;;;;;;;10.40;4.55;;;12.60;63.10;;;;;;5090543;28;20063;-85
2021/11/22 12:41:11;;;;;;;5.78;4.00;;;12.30;63.80;;;;;;5090328;28;20025;-85
2021/11/22 12:43:40;;;;;;;5.97;3.90;;;12.00;64.40;;;;;;5074523;28;20137;-84